Positano — IJZJ — position and weather

sailwx.info

Track history (hours):
 
Tides and Currents Weather Stations Pressure Air Temp Water Temp Dewpoint Dewpoint Depression Visibility Wind Speed Wind Dir Waves Ship Positions

Positano

Last reported at 2016-Apr-27 16:20 UTC. Time now 2016-May-01 07:58 UTC.
Position N 40°36' E 014°20'.

Length 12 m.

MMSI: 247208300.

Date/timePositionNaut miles runAvg speedWind from/ knotsBaromVisibWave heightAir tempDewpointWater temp
2016-Apr-27 16:20N 40°36' E 014°20'5 6.6
2016-Apr-27 15:33N 40°33' E 014°15'0 0.4
2016-Apr-27 14:33N 40°34' E 014°14'0 0.0
2016-Apr-27 13:33N 40°34' E 014°14'2 2.1
2016-Apr-27 12:33N 40°35' E 014°17'7 6.8
2016-Apr-27 11:33N 40°38' E 014°24'4 3.6
2016-Apr-27 10:33N 40°37' E 014°19'5 4.7
2016-Apr-27 09:33N 40°34' E 014°16'3 3.1
2016-Apr-27 08:33N 40°33' E 014°12'7 6.6
2016-Apr-27 07:33N 40°36' E 014°19'1 0.7
2016-Apr-27 06:30N 40°36' E 014°20'  
2016-Apr-22 17:27N 40°36' E 014°20'5 0.8
2016-Apr-22 10:24N 40°34' E 014°14'1 1.6
2016-Apr-22 09:33N 40°34' E 014°12'1 0.8
2016-Apr-22 08:33N 40°33' E 014°12'4 4.2
2016-Apr-22 07:34N 40°34' E 014°17'5 5.0
2016-Apr-22 06:33N 40°38' E 014°21'2 0.1
2016-Apr-21 08:32N 40°39' E 014°22'  
Track history (hours):
 
Tides and Currents Weather Stations Pressure Air Temp Water Temp Dewpoint Dewpoint Depression Visibility Wind Speed Wind Dir Waves Ship Positions

Positano

Last reported at 2016-Apr-27 16:20 UTC. Time now 2016-May-01 07:58 UTC.
Position N 40°36' E 014°20'.

Length 12 m.

MMSI: 247208300.

Date/timePositionNaut miles runAvg speedWind from/ knotsBaromVisibWave heightAir tempDewpointWater temp
2016-Apr-27 16:20N 40°36' E 014°20'5 6.6
2016-Apr-27 15:33N 40°33' E 014°15'0 0.4
2016-Apr-27 14:33N 40°34' E 014°14'0 0.0
2016-Apr-27 13:33N 40°34' E 014°14'2 2.1
2016-Apr-27 12:33N 40°35' E 014°17'7 6.8
2016-Apr-27 11:33N 40°38' E 014°24'4 3.6
2016-Apr-27 10:33N 40°37' E 014°19'5 4.7
2016-Apr-27 09:33N 40°34' E 014°16'3 3.1
2016-Apr-27 08:33N 40°33' E 014°12'7 6.6
2016-Apr-27 07:33N 40°36' E 014°19'1 0.7
2016-Apr-27 06:30N 40°36' E 014°20'  
2016-Apr-22 17:27N 40°36' E 014°20'5 0.8
2016-Apr-22 10:24N 40°34' E 014°14'1 1.6
2016-Apr-22 09:33N 40°34' E 014°12'1 0.8
2016-Apr-22 08:33N 40°33' E 014°12'4 4.2
2016-Apr-22 07:34N 40°34' E 014°17'5 5.0
2016-Apr-22 06:33N 40°38' E 014°21'2 0.1
2016-Apr-21 08:32N 40°39' E 014°22'  

Dump ship's entire track history